sensor_id;sensor_type;location;lat;lon;timestamp;P1;durP1;ratioP1;P2;durP2;ratioP2
38513;SDS011;24282;48.400;10.808;2022-12-29T00:01:28;9.57;;;4.80;;
38513;SDS011;24282;48.400;10.808;2022-12-29T00:03:54;9.53;;;4.70;;
38513;SDS011;24282;48.400;10.808;2022-12-29T00:06:20;9.53;;;4.70;;
38513;SDS011;24282;48.400;10.808;2022-12-29T00:08:46;10.90;;;5.93;;
38513;SDS011;24282;48.400;10.808;2022-12-29T00:11:13;9.67;;;5.03;;
38513;SDS011;24282;48.400;10.808;2022-12-29T00:13:40;12.57;;;5.97;;
38513;SDS011;24282;48.400;10.808;2022-12-29T00:16:25;13.97;;;6.23;;
38513;SDS011;24282;48.400;10.808;2022-12-29T00:18:52;10.70;;;5.67;;
38513;SDS011;24282;48.400;10.808;2022-12-29T00:21:19;17.83;;;6.93;;
38513;SDS011;24282;48.400;10.808;2022-12-29T00:24:05;13.60;;;6.10;;
38513;SDS011;24282;48.400;10.808;2022-12-29T00:26:47;11.03;;;5.43;;
38513;SDS011;24282;48.400;10.808;2022-12-29T00:29:36;10.80;;;5.33;;
38513;SDS011;24282;48.400;10.808;2022-12-29T00:32:21;13.93;;;6.23;;
38513;SDS011;24282;48.400;10.808;2022-12-29T00:35:06;12.00;;;5.80;;
38513;SDS011;24282;48.400;10.808;2022-12-29T00:37:37;12.43;;;6.03;;
38513;SDS011;24282;48.400;10.808;2022-12-29T00:40:27;13.63;;;6.05;;
38513;SDS011;24282;48.400;10.808;2022-12-29T00:43:13;11.83;;;5.63;;
38513;SDS011;24282;48.400;10.808;2022-12-29T00:45:57;10.67;;;5.40;;
38513;SDS011;24282;48.400;10.808;2022-12-29T00:48:23;12.53;;;5.83;;
38513;SDS011;24282;48.400;10.808;2022-12-29T00:51:07;10.97;;;5.70;;
38513;SDS011;24282;48.400;10.808;2022-12-29T00:53:33;10.57;;;4.87;;
38513;SDS011;24282;48.400;10.808;2022-12-29T00:55:59;12.03;;;5.40;;
38513;SDS011;24282;48.400;10.808;2022-12-29T00:58:29;8.33;;;4.10;;
38513;SDS011;24282;48.400;10.808;2022-12-29T01:01:05;10.57;;;5.17;;
38513;SDS011;24282;48.400;10.808;2022-12-29T01:03:33;7.87;;;4.17;;
38513;SDS011;24282;48.400;10.808;2022-12-29T01:06:03;8.73;;;4.20;;
38513;SDS011;24282;48.400;10.808;2022-12-29T01:08:30;6.60;;;3.33;;
38513;SDS011;24282;48.400;10.808;2022-12-29T01:10:57;6.30;;;3.43;;
38513;SDS011;24282;48.400;10.808;2022-12-29T01:13:24;6.00;;;3.67;;
38513;SDS011;24282;48.400;10.808;2022-12-29T01:15:50;5.30;;;2.83;;
38513;SDS011;24282;48.400;10.808;2022-12-29T01:18:17;6.70;;;3.23;;
38513;SDS011;24282;48.400;10.808;2022-12-29T01:20:43;7.80;;;3.50;;
38513;SDS011;24282;48.400;10.808;2022-12-29T01:23:08;6.63;;;3.87;;
38513;SDS011;24282;48.400;10.808;2022-12-29T01:25:34;4.93;;;2.80;;
38513;SDS011;24282;48.400;10.808;2022-12-29T01:28:00;6.40;;;3.37;;
38513;SDS011;24282;48.400;10.808;2022-12-29T01:30:25;6.03;;;3.17;;
38513;SDS011;24282;48.400;10.808;2022-12-29T01:32:52;6.07;;;2.80;;
38513;SDS011;24282;48.400;10.808;2022-12-29T01:35:17;3.80;;;2.13;;
38513;SDS011;24282;48.400;10.808;2022-12-29T01:37:44;4.70;;;2.40;;
38513;SDS011;24282;48.400;10.808;2022-12-29T01:40:10;4.80;;;2.80;;
38513;SDS011;24282;48.400;10.808;2022-12-29T01:42:36;4.43;;;2.60;;
38513;SDS011;24282;48.400;10.808;2022-12-29T01:45:35;3.93;;;2.30;;
38513;SDS011;24282;48.400;10.808;2022-12-29T01:47:55;3.97;;;2.33;;
38513;SDS011;24282;48.400;10.808;2022-12-29T01:50:33;4.93;;;2.85;;
38513;SDS011;24282;48.400;10.808;2022-12-29T01:53:06;5.03;;;3.13;;
38513;SDS011;24282;48.400;10.808;2022-12-29T01:55:48;6.67;;;3.60;;
38513;SDS011;24282;48.400;10.808;2022-12-29T01:58:21;6.43;;;2.97;;
38513;SDS011;24282;48.400;10.808;2022-12-29T02:00:49;8.43;;;4.23;;
38513;SDS011;24282;48.400;10.808;2022-12-29T02:03:16;7.00;;;3.60;;
38513;SDS011;24282;48.400;10.808;2022-12-29T02:08:43;9.53;;;4.17;;
38513;SDS011;24282;48.400;10.808;2022-12-29T02:11:11;6.80;;;3.57;;
38513;SDS011;24282;48.400;10.808;2022-12-29T02:13:38;8.80;;;3.83;;
38513;SDS011;24282;48.400;10.808;2022-12-29T02:32:42;9.63;;;4.97;;
38513;SDS011;24282;48.400;10.808;2022-12-29T02:35:30;9.80;;;4.50;;
38513;SDS011;24282;48.400;10.808;2022-12-29T02:38:25;8.00;;;4.33;;
38513;SDS011;24282;48.400;10.808;2022-12-29T02:44:04;9.80;;;4.87;;
38513;SDS011;24282;48.400;10.808;2022-12-29T02:46:59;6.70;;;3.80;;
38513;SDS011;24282;48.400;10.808;2022-12-29T02:49:32;8.47;;;4.20;;
38513;SDS011;24282;48.400;10.808;2022-12-29T02:52:06;9.27;;;4.20;;
38513;SDS011;24282;48.400;10.808;2022-12-29T02:54:41;8.37;;;4.40;;
38513;SDS011;24282;48.400;10.808;2022-12-29T02:57:15;9.53;;;4.50;;
38513;SDS011;24282;48.400;10.808;2022-12-29T03:16:03;6.28;;;3.95;;
38513;SDS011;24282;48.400;10.808;2022-12-29T03:18:59;8.50;;;4.27;;
38513;SDS011;24282;48.400;10.808;2022-12-29T03:24:18;7.90;;;3.93;;
38513;SDS011;24282;48.400;10.808;2022-12-29T03:26:50;7.33;;;4.40;;
38513;SDS011;24282;48.400;10.808;2022-12-29T03:29:20;9.10;;;4.20;;
38513;SDS011;24282;48.400;10.808;2022-12-29T03:31:47;7.53;;;3.50;;
38513;SDS011;24282;48.400;10.808;2022-12-29T03:34:15;12.17;;;3.80;;
38513;SDS011;24282;48.400;10.808;2022-12-29T03:36:55;6.80;;;3.43;;
38513;SDS011;24282;48.400;10.808;2022-12-29T03:39:30;7.33;;;3.47;;
38513;SDS011;24282;48.400;10.808;2022-12-29T03:42:01;6.27;;;2.90;;
38513;SDS011;24282;48.400;10.808;2022-12-29T03:44:36;6.00;;;2.83;;
38513;SDS011;24282;48.400;10.808;2022-12-29T03:47:05;7.87;;;3.10;;
38513;SDS011;24282;48.400;10.808;2022-12-29T03:49:32;4.57;;;2.60;;
38513;SDS011;24282;48.400;10.808;2022-12-29T03:51:58;5.23;;;2.20;;
38513;SDS011;24282;48.400;10.808;2022-12-29T03:54:24;4.07;;;2.00;;
38513;SDS011;24282;48.400;10.808;2022-12-29T03:56:51;3.10;;;1.50;;
38513;SDS011;24282;48.400;10.808;2022-12-29T03:59:27;2.07;;;1.00;;
38513;SDS011;24282;48.400;10.808;2022-12-29T04:01:53;1.30;;;0.90;;
38513;SDS011;24282;48.400;10.808;2022-12-29T04:04:18;3.83;;;1.00;;
38513;SDS011;24282;48.400;10.808;2022-12-29T04:06:45;1.57;;;0.87;;
38513;SDS011;24282;48.400;10.808;2022-12-29T04:09:11;1.40;;;0.80;;
38513;SDS011;24282;48.400;10.808;2022-12-29T04:11:42;1.17;;;0.80;;
38513;SDS011;24282;48.400;10.808;2022-12-29T04:14:08;4.60;;;0.90;;
38513;SDS011;24282;48.400;10.808;2022-12-29T04:16:34;1.70;;;0.90;;
38513;SDS011;24282;48.400;10.808;2022-12-29T04:19:05;1.17;;;0.70;;
38513;SDS011;24282;48.400;10.808;2022-12-29T04:21:33;1.07;;;0.77;;
38513;SDS011;24282;48.400;10.808;2022-12-29T04:23:59;1.03;;;0.70;;
38513;SDS011;24282;48.400;10.808;2022-12-29T04:26:25;2.20;;;0.90;;
38513;SDS011;24282;48.400;10.808;2022-12-29T04:29:09;4.67;;;1.20;;
38513;SDS011;24282;48.400;10.808;2022-12-29T04:31:44;1.10;;;0.70;;
38513;SDS011;24282;48.400;10.808;2022-12-29T04:34:10;2.40;;;1.00;;
38513;SDS011;24282;48.400;10.808;2022-12-29T04:36:37;1.57;;;0.90;;
38513;SDS011;24282;48.400;10.808;2022-12-29T04:39:05;1.87;;;0.90;;
38513;SDS011;24282;48.400;10.808;2022-12-29T04:41:32;2.13;;;0.90;;
38513;SDS011;24282;48.400;10.808;2022-12-29T04:43:58;1.63;;;0.83;;
38513;SDS011;24282;48.400;10.808;2022-12-29T04:46:36;1.20;;;0.77;;
38513;SDS011;24282;48.400;10.808;2022-12-29T04:49:37;2.00;;;0.80;;
38513;SDS011;24282;48.400;10.808;2022-12-29T04:52:18;1.43;;;0.87;;
38513;SDS011;24282;48.400;10.808;2022-12-29T04:54:45;1.47;;;0.77;;
38513;SDS011;24282;48.400;10.808;2022-12-29T04:57:16;1.63;;;0.90;;
38513;SDS011;24282;48.400;10.808;2022-12-29T04:59:45;1.30;;;0.83;;
38513;SDS011;24282;48.400;10.808;2022-12-29T05:02:11;0.90;;;0.73;;
38513;SDS011;24282;48.400;10.808;2022-12-29T05:04:37;2.10;;;1.00;;
38513;SDS011;24282;48.400;10.808;2022-12-29T05:07:03;1.00;;;0.80;;
38513;SDS011;24282;48.400;10.808;2022-12-29T05:09:28;1.07;;;0.70;;
38513;SDS011;24282;48.400;10.808;2022-12-29T05:11:55;1.43;;;0.90;;
38513;SDS011;24282;48.400;10.808;2022-12-29T05:14:21;1.70;;;0.70;;
38513;SDS011;24282;48.400;10.808;2022-12-29T05:16:47;1.17;;;0.97;;
38513;SDS011;24282;48.400;10.808;2022-12-29T05:19:14;1.20;;;0.80;;
38513;SDS011;24282;48.400;10.808;2022-12-29T05:21:39;1.20;;;0.83;;
38513;SDS011;24282;48.400;10.808;2022-12-29T05:24:06;1.77;;;0.90;;
38513;SDS011;24282;48.400;10.808;2022-12-29T05:26:32;2.77;;;0.77;;
38513;SDS011;24282;48.400;10.808;2022-12-29T05:29:21;2.00;;;0.97;;
38513;SDS011;24282;48.400;10.808;2022-12-29T05:31:47;1.23;;;0.90;;
38513;SDS011;24282;48.400;10.808;2022-12-29T05:34:13;1.33;;;0.87;;
38513;SDS011;24282;48.400;10.808;2022-12-29T05:36:39;2.07;;;0.83;;
38513;SDS011;24282;48.400;10.808;2022-12-29T05:39:07;1.67;;;1.00;;
38513;SDS011;24282;48.400;10.808;2022-12-29T05:41:34;0.93;;;0.80;;
38513;SDS011;24282;48.400;10.808;2022-12-29T05:44:03;0.83;;;0.70;;
38513;SDS011;24282;48.400;10.808;2022-12-29T05:46:57;1.53;;;0.83;;
38513;SDS011;24282;48.400;10.808;2022-12-29T05:49:49;2.87;;;1.10;;
38513;SDS011;24282;48.400;10.808;2022-12-29T05:52:36;1.27;;;0.80;;
38513;SDS011;24282;48.400;10.808;2022-12-29T05:55:02;1.10;;;0.90;;
38513;SDS011;24282;48.400;10.808;2022-12-29T05:57:30;1.83;;;1.00;;
38513;SDS011;24282;48.400;10.808;2022-12-29T06:00:03;1.65;;;0.88;;
38513;SDS011;24282;48.400;10.808;2022-12-29T06:02:39;1.80;;;1.27;;
38513;SDS011;24282;48.400;10.808;2022-12-29T06:05:06;3.63;;;2.07;;
38513;SDS011;24282;48.400;10.808;2022-12-29T06:07:33;1.63;;;1.10;;
38513;SDS011;24282;48.400;10.808;2022-12-29T06:09:59;2.23;;;1.00;;
38513;SDS011;24282;48.400;10.808;2022-12-29T06:12:26;1.50;;;1.00;;
38513;SDS011;24282;48.400;10.808;2022-12-29T06:14:53;2.07;;;0.90;;
38513;SDS011;24282;48.400;10.808;2022-12-29T06:17:18;2.70;;;1.17;;
38513;SDS011;24282;48.400;10.808;2022-12-29T06:19:44;1.40;;;0.90;;
38513;SDS011;24282;48.400;10.808;2022-12-29T06:22:10;2.57;;;0.97;;
38513;SDS011;24282;48.400;10.808;2022-12-29T06:24:39;1.90;;;1.30;;
38513;SDS011;24282;48.400;10.808;2022-12-29T06:27:04;3.70;;;1.57;;
38513;SDS011;24282;48.400;10.808;2022-12-29T06:29:30;4.40;;;1.80;;
38513;SDS011;24282;48.400;10.808;2022-12-29T06:31:56;2.37;;;1.37;;
38513;SDS011;24282;48.400;10.808;2022-12-29T06:34:24;1.77;;;0.97;;
38513;SDS011;24282;48.400;10.808;2022-12-29T06:36:50;1.60;;;0.90;;
38513;SDS011;24282;48.400;10.808;2022-12-29T06:39:16;2.23;;;1.47;;
38513;SDS011;24282;48.400;10.808;2022-12-29T06:41:51;3.10;;;1.30;;
38513;SDS011;24282;48.400;10.808;2022-12-29T06:44:40;3.40;;;1.20;;
38513;SDS011;24282;48.400;10.808;2022-12-29T06:47:08;2.50;;;1.00;;
38513;SDS011;24282;48.400;10.808;2022-12-29T06:49:34;1.47;;;1.10;;
38513;SDS011;24282;48.400;10.808;2022-12-29T06:52:00;2.70;;;1.23;;
38513;SDS011;24282;48.400;10.808;2022-12-29T06:54:29;1.73;;;1.03;;
38513;SDS011;24282;48.400;10.808;2022-12-29T06:56:57;2.73;;;1.07;;
38513;SDS011;24282;48.400;10.808;2022-12-29T06:59:23;2.70;;;1.33;;
38513;SDS011;24282;48.400;10.808;2022-12-29T07:01:49;1.80;;;1.30;;
38513;SDS011;24282;48.400;10.808;2022-12-29T07:04:15;2.77;;;1.20;;
38513;SDS011;24282;48.400;10.808;2022-12-29T07:06:41;2.27;;;1.13;;
38513;SDS011;24282;48.400;10.808;2022-12-29T07:09:07;2.90;;;1.20;;
38513;SDS011;24282;48.400;10.808;2022-12-29T07:11:33;2.83;;;1.07;;
38513;SDS011;24282;48.400;10.808;2022-12-29T07:13:59;2.17;;;1.30;;
38513;SDS011;24282;48.400;10.808;2022-12-29T07:16:25;2.63;;;1.20;;
38513;SDS011;24282;48.400;10.808;2022-12-29T07:18:51;5.43;;;2.33;;
38513;SDS011;24282;48.400;10.808;2022-12-29T07:21:17;3.57;;;2.17;;
38513;SDS011;24282;48.400;10.808;2022-12-29T07:23:43;2.93;;;1.70;;
38513;SDS011;24282;48.400;10.808;2022-12-29T07:26:10;3.07;;;1.50;;
38513;SDS011;24282;48.400;10.808;2022-12-29T07:28:38;3.87;;;1.63;;
38513;SDS011;24282;48.400;10.808;2022-12-29T07:31:04;2.57;;;1.57;;
38513;SDS011;24282;48.400;10.808;2022-12-29T07:33:31;2.10;;;1.13;;
38513;SDS011;24282;48.400;10.808;2022-12-29T07:35:57;3.10;;;1.40;;
38513;SDS011;24282;48.400;10.808;2022-12-29T07:38:24;2.20;;;1.20;;
38513;SDS011;24282;48.400;10.808;2022-12-29T07:40:49;3.27;;;1.67;;
38513;SDS011;24282;48.400;10.808;2022-12-29T07:43:15;4.37;;;1.40;;
38513;SDS011;24282;48.400;10.808;2022-12-29T07:45:52;4.23;;;2.60;;
38513;SDS011;24282;48.400;10.808;2022-12-29T07:48:21;4.13;;;2.10;;
38513;SDS011;24282;48.400;10.808;2022-12-29T07:50:47;2.10;;;1.20;;
38513;SDS011;24282;48.400;10.808;2022-12-29T07:53:13;2.60;;;1.23;;
38513;SDS011;24282;48.400;10.808;2022-12-29T07:55:40;2.10;;;1.47;;
38513;SDS011;24282;48.400;10.808;2022-12-29T07:58:05;2.00;;;1.40;;
38513;SDS011;24282;48.400;10.808;2022-12-29T08:00:32;2.90;;;1.13;;
38513;SDS011;24282;48.400;10.808;2022-12-29T08:02:58;2.20;;;1.50;;
38513;SDS011;24282;48.400;10.808;2022-12-29T08:05:24;1.93;;;1.10;;
38513;SDS011;24282;48.400;10.808;2022-12-29T08:07:49;1.90;;;1.03;;
38513;SDS011;24282;48.400;10.808;2022-12-29T08:10:15;5.33;;;1.70;;
38513;SDS011;24282;48.400;10.808;2022-12-29T08:12:41;3.57;;;1.47;;
38513;SDS011;24282;48.400;10.808;2022-12-29T08:15:08;4.37;;;1.90;;
38513;SDS011;24282;48.400;10.808;2022-12-29T08:17:35;2.13;;;1.30;;
38513;SDS011;24282;48.400;10.808;2022-12-29T08:20:01;2.33;;;1.33;;
38513;SDS011;24282;48.400;10.808;2022-12-29T08:22:27;1.97;;;1.50;;
38513;SDS011;24282;48.400;10.808;2022-12-29T08:24:53;3.83;;;1.57;;
38513;SDS011;24282;48.400;10.808;2022-12-29T08:27:18;3.40;;;1.30;;
38513;SDS011;24282;48.400;10.808;2022-12-29T08:29:44;3.17;;;1.83;;
38513;SDS011;24282;48.400;10.808;2022-12-29T08:32:10;4.80;;;2.20;;
38513;SDS011;24282;48.400;10.808;2022-12-29T08:34:36;4.33;;;1.80;;
38513;SDS011;24282;48.400;10.808;2022-12-29T08:37:02;2.60;;;1.43;;
38513;SDS011;24282;48.400;10.808;2022-12-29T08:39:28;2.50;;;1.30;;
38513;SDS011;24282;48.400;10.808;2022-12-29T08:41:54;2.10;;;1.07;;
38513;SDS011;24282;48.400;10.808;2022-12-29T08:44:20;6.70;;;1.40;;
38513;SDS011;24282;48.400;10.808;2022-12-29T08:46:46;2.83;;;1.40;;
38513;SDS011;24282;48.400;10.808;2022-12-29T08:49:12;2.30;;;1.20;;
38513;SDS011;24282;48.400;10.808;2022-12-29T08:51:37;4.73;;;1.33;;
38513;SDS011;24282;48.400;10.808;2022-12-29T08:54:03;2.27;;;1.40;;
38513;SDS011;24282;48.400;10.808;2022-12-29T08:56:29;3.23;;;1.40;;
38513;SDS011;24282;48.400;10.808;2022-12-29T08:58:58;1.50;;;1.00;;
38513;SDS011;24282;48.400;10.808;2022-12-29T09:01:27;3.03;;;1.80;;
38513;SDS011;24282;48.400;10.808;2022-12-29T09:03:58;3.40;;;1.60;;
38513;SDS011;24282;48.400;10.808;2022-12-29T09:06:23;3.03;;;1.30;;
38513;SDS011;24282;48.400;10.808;2022-12-29T09:08:49;3.63;;;1.43;;
38513;SDS011;24282;48.400;10.808;2022-12-29T09:11:17;3.67;;;1.50;;
38513;SDS011;24282;48.400;10.808;2022-12-29T09:13:45;2.53;;;1.37;;
38513;SDS011;24282;48.400;10.808;2022-12-29T09:16:11;3.53;;;1.47;;
38513;SDS011;24282;48.400;10.808;2022-12-29T09:18:38;3.50;;;1.80;;
38513;SDS011;24282;48.400;10.808;2022-12-29T09:21:05;3.20;;;1.57;;
38513;SDS011;24282;48.400;10.808;2022-12-29T09:23:31;3.47;;;2.23;;
38513;SDS011;24282;48.400;10.808;2022-12-29T09:25:57;3.60;;;1.20;;
38513;SDS011;24282;48.400;10.808;2022-12-29T09:28:23;3.67;;;1.20;;
38513;SDS011;24282;48.400;10.808;2022-12-29T09:30:49;2.37;;;1.20;;
38513;SDS011;24282;48.400;10.808;2022-12-29T09:33:15;2.50;;;1.50;;
38513;SDS011;24282;48.400;10.808;2022-12-29T09:35:45;3.77;;;1.37;;
38513;SDS011;24282;48.400;10.808;2022-12-29T09:38:15;1.83;;;1.13;;
38513;SDS011;24282;48.400;10.808;2022-12-29T09:40:43;3.73;;;1.30;;
38513;SDS011;24282;48.400;10.808;2022-12-29T09:45:45;4.57;;;1.70;;
38513;SDS011;24282;48.400;10.808;2022-12-29T09:48:32;1.90;;;1.10;;
38513;SDS011;24282;48.400;10.808;2022-12-29T09:51:08;3.10;;;1.37;;
38513;SDS011;24282;48.400;10.808;2022-12-29T09:53:38;2.35;;;1.45;;
38513;SDS011;24282;48.400;10.808;2022-12-29T09:56:16;4.00;;;1.37;;
38513;SDS011;24282;48.400;10.808;2022-12-29T09:58:50;3.70;;;1.17;;
38513;SDS011;24282;48.400;10.808;2022-12-29T10:01:23;2.00;;;1.10;;
38513;SDS011;24282;48.400;10.808;2022-12-29T10:03:57;1.67;;;1.05;;
38513;SDS011;24282;48.400;10.808;2022-12-29T10:09:19;2.03;;;1.10;;
38513;SDS011;24282;48.400;10.808;2022-12-29T10:17:30;2.03;;;1.07;;
38513;SDS011;24282;48.400;10.808;2022-12-29T10:23:05;3.47;;;1.40;;
38513;SDS011;24282;48.400;10.808;2022-12-29T10:25:37;6.23;;;1.10;;
38513;SDS011;24282;48.400;10.808;2022-12-29T10:28:06;1.30;;;0.70;;
38513;SDS011;24282;48.400;10.808;2022-12-29T10:30:45;2.90;;;0.97;;
38513;SDS011;24282;48.400;10.808;2022-12-29T10:33:14;5.47;;;1.40;;
38513;SDS011;24282;48.400;10.808;2022-12-29T10:35:45;5.68;;;1.60;;
38513;SDS011;24282;48.400;10.808;2022-12-29T10:40:50;4.30;;;1.30;;
38513;SDS011;24282;48.400;10.808;2022-12-29T10:46:02;3.33;;;1.30;;
38513;SDS011;24282;48.400;10.808;2022-12-29T10:48:35;3.00;;;1.00;;
38513;SDS011;24282;48.400;10.808;2022-12-29T10:51:02;2.17;;;1.13;;
38513;SDS011;24282;48.400;10.808;2022-12-29T10:53:53;3.67;;;1.33;;
38513;SDS011;24282;48.400;10.808;2022-12-29T10:58:55;2.50;;;1.00;;
38513;SDS011;24282;48.400;10.808;2022-12-29T11:01:26;1.60;;;0.80;;
38513;SDS011;24282;48.400;10.808;2022-12-29T11:05:01;1.60;;;0.80;;
38513;SDS011;24282;48.400;10.808;2022-12-29T11:07:15;3.88;;;1.13;;
38513;SDS011;24282;48.400;10.808;2022-12-29T11:09:44;2.80;;;1.00;;
38513;SDS011;24282;48.400;10.808;2022-12-29T11:12:18;1.43;;;0.80;;
38513;SDS011;24282;48.400;10.808;2022-12-29T11:14:45;1.40;;;0.67;;
38513;SDS011;24282;48.400;10.808;2022-12-29T11:17:14;4.27;;;1.23;;
38513;SDS011;24282;48.400;10.808;2022-12-29T11:19:42;2.43;;;1.20;;
38513;SDS011;24282;48.400;10.808;2022-12-29T11:22:19;2.33;;;0.73;;
38513;SDS011;24282;48.400;10.808;2022-12-29T11:24:47;3.20;;;1.13;;
38513;SDS011;24282;48.400;10.808;2022-12-29T11:29:41;1.87;;;1.00;;
38513;SDS011;24282;48.400;10.808;2022-12-29T11:32:26;2.90;;;1.50;;
38513;SDS011;24282;48.400;10.808;2022-12-29T11:34:58;2.63;;;0.70;;
38513;SDS011;24282;48.400;10.808;2022-12-29T11:37:28;2.20;;;0.90;;
38513;SDS011;24282;48.400;10.808;2022-12-29T11:45:04;2.00;;;0.93;;
38513;SDS011;24282;48.400;10.808;2022-12-29T11:47:35;2.37;;;1.10;;
38513;SDS011;24282;48.400;10.808;2022-12-29T11:50:03;2.27;;;0.97;;
38513;SDS011;24282;48.400;10.808;2022-12-29T11:52:32;3.20;;;1.20;;
38513;SDS011;24282;48.400;10.808;2022-12-29T11:55:01;1.73;;;0.90;;
38513;SDS011;24282;48.400;10.808;2022-12-29T11:57:31;4.67;;;1.60;;
38513;SDS011;24282;48.400;10.808;2022-12-29T12:00:00;2.07;;;1.00;;
38513;SDS011;24282;48.400;10.808;2022-12-29T12:05:27;3.60;;;1.00;;
38513;SDS011;24282;48.400;10.808;2022-12-29T12:13:40;1.40;;;0.80;;
38513;SDS011;24282;48.400;10.808;2022-12-29T12:17:02;1.57;;;0.90;;
38513;SDS011;24282;48.400;10.808;2022-12-29T12:22:34;1.27;;;0.80;;
38513;SDS011;24282;48.400;10.808;2022-12-29T12:25:25;1.87;;;0.93;;
38513;SDS011;24282;48.400;10.808;2022-12-29T12:28:19;2.47;;;0.93;;
38513;SDS011;24282;48.400;10.808;2022-12-29T12:30:52;5.00;;;1.57;;
38513;SDS011;24282;48.400;10.808;2022-12-29T12:33:27;1.60;;;0.90;;
38513;SDS011;24282;48.400;10.808;2022-12-29T12:38:54;3.33;;;1.40;;
38513;SDS011;24282;48.400;10.808;2022-12-29T12:41:36;4.47;;;1.60;;
38513;SDS011;24282;48.400;10.808;2022-12-29T12:44:28;3.20;;;1.10;;
38513;SDS011;24282;48.400;10.808;2022-12-29T12:53:15;3.03;;;1.67;;
38513;SDS011;24282;48.400;10.808;2022-12-29T12:55:30;2.80;;;1.40;;
38513;SDS011;24282;48.400;10.808;2022-12-29T13:04:00;2.17;;;1.20;;
38513;SDS011;24282;48.400;10.808;2022-12-29T13:10:08;2.07;;;0.90;;
38513;SDS011;24282;48.400;10.808;2022-12-29T13:20:45;1.33;;;0.67;;
38513;SDS011;24282;48.400;10.808;2022-12-29T13:28:48;8.53;;;2.73;;
38513;SDS011;24282;48.400;10.808;2022-12-29T13:31:33;2.23;;;1.20;;
38513;SDS011;24282;48.400;10.808;2022-12-29T13:37:18;1.53;;;0.80;;
38513;SDS011;24282;48.400;10.808;2022-12-29T13:39:48;1.93;;;0.90;;
38513;SDS011;24282;48.400;10.808;2022-12-29T13:42:18;1.77;;;1.00;;
38513;SDS011;24282;48.400;10.808;2022-12-29T13:44:52;0.93;;;0.63;;
38513;SDS011;24282;48.400;10.808;2022-12-29T13:49:54;2.03;;;0.70;;
38513;SDS011;24282;48.400;10.808;2022-12-29T13:52:33;2.20;;;0.97;;
38513;SDS011;24282;48.400;10.808;2022-12-29T13:55:26;3.00;;;1.23;;
38513;SDS011;24282;48.400;10.808;2022-12-29T14:00:43;1.37;;;0.83;;
38513;SDS011;24282;48.400;10.808;2022-12-29T14:06:14;1.20;;;0.73;;
38513;SDS011;24282;48.400;10.808;2022-12-29T14:08:56;2.43;;;0.90;;
38513;SDS011;24282;48.400;10.808;2022-12-29T14:11:28;1.20;;;0.80;;
38513;SDS011;24282;48.400;10.808;2022-12-29T14:13:57;2.37;;;1.20;;
38513;SDS011;24282;48.400;10.808;2022-12-29T14:16:25;1.37;;;0.80;;
38513;SDS011;24282;48.400;10.808;2022-12-29T14:18:57;2.78;;;0.93;;
38513;SDS011;24282;48.400;10.808;2022-12-29T14:21:41;2.03;;;0.90;;
38513;SDS011;24282;48.400;10.808;2022-12-29T14:27:00;1.50;;;0.80;;
38513;SDS011;24282;48.400;10.808;2022-12-29T14:32:33;0.80;;;0.60;;
38513;SDS011;24282;48.400;10.808;2022-12-29T14:34:49;1.57;;;0.80;;
38513;SDS011;24282;48.400;10.808;2022-12-29T14:37:32;2.33;;;0.80;;
38513;SDS011;24282;48.400;10.808;2022-12-29T14:42:28;1.37;;;0.80;;
38513;SDS011;24282;48.400;10.808;2022-12-29T14:47:36;3.30;;;1.30;;
38513;SDS011;24282;48.400;10.808;2022-12-29T14:53:02;2.20;;;0.80;;
38513;SDS011;24282;48.400;10.808;2022-12-29T14:58:15;1.73;;;0.90;;
38513;SDS011;24282;48.400;10.808;2022-12-29T15:00:45;7.40;;;1.00;;
38513;SDS011;24282;48.400;10.808;2022-12-29T15:05:44;3.27;;;1.00;;
38513;SDS011;24282;48.400;10.808;2022-12-29T15:08:17;3.50;;;1.02;;
38513;SDS011;24282;48.400;10.808;2022-12-29T15:10:47;4.77;;;1.20;;
38513;SDS011;24282;48.400;10.808;2022-12-29T15:13:24;2.30;;;0.80;;
38513;SDS011;24282;48.400;10.808;2022-12-29T15:15:58;1.83;;;0.93;;
38513;SDS011;24282;48.400;10.808;2022-12-29T15:18:25;2.20;;;0.83;;
38513;SDS011;24282;48.400;10.808;2022-12-29T15:20:55;2.50;;;1.10;;
38513;SDS011;24282;48.400;10.808;2022-12-29T15:23:25;1.50;;;0.80;;
38513;SDS011;24282;48.400;10.808;2022-12-29T15:25:57;1.90;;;0.90;;
38513;SDS011;24282;48.400;10.808;2022-12-29T15:28:42;2.03;;;1.10;;
38513;SDS011;24282;48.400;10.808;2022-12-29T15:31:14;1.80;;;0.87;;
38513;SDS011;24282;48.400;10.808;2022-12-29T15:33:40;3.53;;;1.20;;
38513;SDS011;24282;48.400;10.808;2022-12-29T15:36:12;2.40;;;1.20;;
38513;SDS011;24282;48.400;10.808;2022-12-29T15:38:42;2.93;;;1.00;;
38513;SDS011;24282;48.400;10.808;2022-12-29T15:48:44;2.20;;;0.90;;
38513;SDS011;24282;48.400;10.808;2022-12-29T15:51:20;2.90;;;0.90;;
38513;SDS011;24282;48.400;10.808;2022-12-29T15:53:53;1.48;;;0.90;;
38513;SDS011;24282;48.400;10.808;2022-12-29T15:56:19;1.40;;;0.77;;
38513;SDS011;24282;48.400;10.808;2022-12-29T15:58:50;3.80;;;1.20;;
38513;SDS011;24282;48.400;10.808;2022-12-29T16:03:52;2.20;;;1.20;;
38513;SDS011;24282;48.400;10.808;2022-12-29T16:06:26;2.30;;;1.20;;
38513;SDS011;24282;48.400;10.808;2022-12-29T16:09:11;3.67;;;1.83;;
38513;SDS011;24282;48.400;10.808;2022-12-29T16:11:44;4.03;;;1.97;;
38513;SDS011;24282;48.400;10.808;2022-12-29T16:14:14;3.47;;;1.60;;
38513;SDS011;24282;48.400;10.808;2022-12-29T16:16:43;4.77;;;1.67;;
38513;SDS011;24282;48.400;10.808;2022-12-29T16:21:46;3.80;;;1.80;;
38513;SDS011;24282;48.400;10.808;2022-12-29T16:24:14;3.43;;;1.47;;
38513;SDS011;24282;48.400;10.808;2022-12-29T16:26:50;6.70;;;2.73;;
38513;SDS011;24282;48.400;10.808;2022-12-29T16:29:19;4.47;;;1.90;;
38513;SDS011;24282;48.400;10.808;2022-12-29T16:31:51;3.37;;;2.00;;
38513;SDS011;24282;48.400;10.808;2022-12-29T16:39:47;4.30;;;2.43;;
38513;SDS011;24282;48.400;10.808;2022-12-29T16:50:36;3.67;;;1.53;;
38513;SDS011;24282;48.400;10.808;2022-12-29T16:53:04;2.30;;;1.60;;
38513;SDS011;24282;48.400;10.808;2022-12-29T16:55:30;2.13;;;1.33;;
38513;SDS011;24282;48.400;10.808;2022-12-29T16:57:57;2.80;;;1.60;;
38513;SDS011;24282;48.400;10.808;2022-12-29T17:00:28;4.07;;;1.50;;
38513;SDS011;24282;48.400;10.808;2022-12-29T17:02:59;2.80;;;1.37;;
38513;SDS011;24282;48.400;10.808;2022-12-29T17:05:26;3.53;;;1.50;;
38513;SDS011;24282;48.400;10.808;2022-12-29T17:07:52;4.10;;;1.43;;
38513;SDS011;24282;48.400;10.808;2022-12-29T17:10:18;3.27;;;1.47;;
38513;SDS011;24282;48.400;10.808;2022-12-29T17:12:44;4.27;;;1.90;;
38513;SDS011;24282;48.400;10.808;2022-12-29T17:15:24;6.93;;;4.10;;
38513;SDS011;24282;48.400;10.808;2022-12-29T17:17:54;4.93;;;2.77;;
38513;SDS011;24282;48.400;10.808;2022-12-29T17:20:22;3.67;;;1.57;;
38513;SDS011;24282;48.400;10.808;2022-12-29T17:22:49;2.60;;;1.40;;
38513;SDS011;24282;48.400;10.808;2022-12-29T17:25:19;2.90;;;1.57;;
38513;SDS011;24282;48.400;10.808;2022-12-29T17:27:47;1.60;;;1.17;;
38513;SDS011;24282;48.400;10.808;2022-12-29T17:30:19;4.97;;;1.43;;
38513;SDS011;24282;48.400;10.808;2022-12-29T17:32:51;2.47;;;1.50;;
38513;SDS011;24282;48.400;10.808;2022-12-29T17:35:26;3.73;;;1.70;;
38513;SDS011;24282;48.400;10.808;2022-12-29T17:37:53;3.20;;;1.67;;
38513;SDS011;24282;48.400;10.808;2022-12-29T17:40:26;2.57;;;1.60;;
38513;SDS011;24282;48.400;10.808;2022-12-29T17:42:55;3.60;;;1.70;;
38513;SDS011;24282;48.400;10.808;2022-12-29T17:45:26;3.50;;;1.57;;
38513;SDS011;24282;48.400;10.808;2022-12-29T17:47:53;3.20;;;1.30;;